Latest Weather Observations for Bankstown

IDN60901

Issued at 10:35 am EDT Friday 31 October 2014 (issued every 10 minutes, with the page automatically refreshed every 10 minutes)

About weather observations | Map of Sydney area stations | Latest observations for Sydney area | Other Formats
Station Details ID: 066137 Name: BANKSTOWN AIRPORT AWS Lat: -33.92 Lon: 150.99 Height: 6.5 m
Data from the previous 72 hours. | See also: Recent months at Bankstown
Date/Time
EDT
Tmp

°C
App
Tmp
°C
Dew
Point
°C
Rel
Hum
%
Delta-T

°C
Wind Press
QNH
hPa
Press
MSL
hPa
Rain
since
9 am
mm
Dir
 
Spd
km/h
Gust
km/h
Spd
kts
Gust
kts
31/10:30am 26.1 24.7 9.4 35 9.2 NW 7 11 4 6 1012.9 1012.9 0.0
31/10:00am 24.3 23.2 8.3 36 8.5 NW 4 9 2 5 1013.2 1013.2 0.0
31/09:30am 23.0 21.6 9.0 41 7.5 WNW 6 9 3 5 1013.4 1013.4 0.0
31/09:00am 21.5 19.7 9.4 46 6.5 WSW 9 15 5 8 1013.6 1013.6 0.0
31/08:30am 19.6 18.3 9.8 53 5.2 W 7 9 4 5 1013.5 1013.5 0.0
31/08:00am 18.1 16.8 10.0 59 4.3 WNW 7 9 4 5 1013.3 1013.3 0.0
31/07:30am 16.5 16.7 10.4 67 3.2 CALM 0 0 0 0 1013.2 1013.2 0.0
31/07:00am 14.8 15.2 11.4 80 1.8 CALM 0 0 0 0 1013.2 1013.2 0.0
31/06:30am 13.2 13.4 10.4 83 1.5 CALM 0 0 0 0 1013.0 1013.0 0.0
31/06:00am 13.0 12.8 9.1 77 2.0 S 0 0 0 0 1013.1 1013.1 0.0
31/05:30am 12.9 12.7 9.0 77 2.0 CALM 0 0 0 0 1012.9 1012.9 0.0
31/05:00am 13.6 13.3 8.7 72 2.5 CALM 0 0 0 0 1012.9 1012.9 0.0
31/04:30am 14.4 14.1 10.0 75 2.3 SSW 2 9 1 5 1012.7 1012.7 0.0
31/04:00am 13.7 13.6 9.6 76 2.1 CALM 0 0 0 0 1012.6 1012.6 0.0
31/03:30am 14.4 14.6 10.4 77 2.1 CALM 0 0 0 0 1012.5 1012.5 0.0
31/03:00am 14.4 14.4 9.8 74 2.4 CALM 0 0 0 0 1012.6 1012.6 0.0
31/02:30am 15.4 14.2 9.7 69 3.0 S 6 7 3 4 1012.7 1012.7 0.0
31/02:00am 15.2 15.3 10.0 71 2.7 S 0 0 0 0 1012.9 1012.9 0.0
31/01:30am 16.3 16.3 9.9 66 3.4 CALM 0 0 0 0 1013.1 1013.1 0.0
31/01:00am 16.5 16.7 10.6 68 3.1 CALM 0 0 0 0 1013.5 1013.5 0.0
31/12:30am 16.9 17.3 11.2 69 3.1 CALM 0 0 0 0 1013.7 1013.7 0.0
31/12:00am 16.1 15.1 8.8 62 3.7 ESE 4 9 2 5 1013.6 1013.6 0.0
 
Date/Time
EDT
Tmp

°C
App
Tmp
°C
Dew
Point
°C
Rel
Hum
%
Delta-T

°C
Wind Press
QNH
hPa
Press
MSL
hPa
Rain
since
9 am
mm
Dir
 
Spd
km/h
Gust
km/h
Spd
kts
Gust
kts
30/11:30pm 19.6 19.6 9.8 53 5.2 CALM 0 0 0 0 1013.6 1013.6 0.0
30/11:00pm 19.3 18.8 7.7 47 5.9 CALM 0 0 0 0 1013.6 1013.6 0.0
30/10:30pm 21.4 19.6 7.3 40 7.3 ESE 6 7 3 4 1013.6 1013.6 0.0
30/10:00pm 21.9 19.0 6.6 37 7.8 SE 11 13 6 7 1013.5 1013.5 0.0
30/09:30pm 22.6 20.0 6.0 34 8.4 E 9 17 5 9 1013.2 1013.2 0.0
30/09:00pm 23.0 20.3 5.4 32 8.8 E 9 15 5 8 1012.9 1012.9 0.0
30/08:30pm 23.6 20.5 5.5 31 9.1 E 11 17 6 9 1012.7 1012.7 0.0
30/08:00pm 24.2 20.4 6.0 31 9.3 E 15 19 8 10 1012.2 1012.2 0.0
30/07:30pm 25.5 22.7 7.1 31 9.7 E 11 15 6 8 1011.8 1011.8 0.0
30/07:00pm 26.8 23.2 6.8 28 10.5 E 15 20 8 11 1011.2 1011.2 0.0
30/06:30pm 28.1 25.0 7.4 27 11.1 E 13 17 7 9 1010.8 1010.8 0.0
30/06:00pm 31.0 28.9 3.9 18 13.9 NNW 4 7 2 4 1010.2 1010.2 0.0
30/05:30pm 31.0 27.9 0.4 14 14.8 ENE 6 11 3 6 1010.1 1010.1 0.0
30/05:00pm 30.9 27.7 3.0 17 14.1 NW 9 11 5 6 1010.1 1010.1 0.0
30/04:30pm 30.8 28.1 3.8 18 13.8 SW 7 11 4 6 1010.3 1010.3 0.0
30/04:00pm 30.9 27.2 4.6 19 13.7 WSW 13 24 7 13 1010.4 1010.4 0.0
30/03:30pm 30.6 27.1 3.6 18 13.8 W 11 19 6 10 1010.9 1010.9 0.0
30/03:00pm 30.3 27.1 4.9 20 13.2 W 11 26 6 14 1011.4 1011.4 0.0
30/02:30pm 30.0 24.9 3.9 19 13.3 WSW 20 30 11 16 1011.9 1011.9 0.0
30/02:00pm 29.3 24.6 3.3 19 13.1 WNW 17 26 9 14 1012.2 1012.2 0.0
30/01:30pm 28.8 25.7 5.6 23 12.1 WNW 11 19 6 10 1012.6 1012.6 0.0
30/01:00pm 28.4 23.7 3.3 20 12.6 W 17 26 9 14 1012.9 1012.9 0.0
30/12:30pm 27.7 24.7 4.1 22 11.9 WNW 9 20 5 11 1013.4 1013.4 0.0
30/12:00pm 27.5 25.2 7.4 28 10.7 NNW 9 17 5 9 1013.8 1013.8 0.0
30/11:30am 26.7 25.2 12.0 40 8.5 W 11 15 6 8 1014.3 1014.3 0.0
30/11:00am 24.7 22.9 9.4 38 8.3 NW 9 17 5 9 1014.7 1014.7 0.0
30/10:30am 23.6 23.1 12.6 50 6.3 NNW 7 13 4 7 1015.0 1015.0 0.0
30/10:00am 22.4 22.0 14.0 59 4.9 WNW 9 13 5 7 1015.3 1015.3 0.0
30/09:30am 21.0 19.7 13.7 63 4.2 NW 13 17 7 9 1015.5 1015.5 0.0
30/09:00am 20.3 19.6 14.2 68 3.5 NW 11 17 6 9 1015.5 1015.5 0.0
30/08:30am 18.9 18.5 14.2 74 2.7 NW 9 13 5 7 1015.8 1015.8 0.0
30/08:00am 17.4 16.9 13.9 80 2.0 NW 9 11 5 6 1015.7 1015.7 0.0
30/07:30am 15.9 16.1 14.3 90 0.9 NNW 6 7 3 4 1015.7 1015.7 0.0
30/07:00am 14.1 15.0 12.8 92 0.7 CALM 0 0 0 0 1015.4 1015.4 0.0
30/06:30am 13.1 13.6 11.7 91 0.7 CALM 0 0 0 0 1015.3 1015.3 0.0
30/06:00am 12.9 13.4 11.5 91 0.7 CALM 0 0 0 0 1015.1 1015.1 0.0
30/05:30am 13.2 13.8 11.8 91 0.7 CALM 0 0 0 0 1014.9 1014.9 0.0
30/05:21am 13.4 14.0 12.0 91 0.8 CALM 0 0 0 0 1014.8 1014.8 0.0
30/05:00am 13.2 13.7 11.6 90 0.9 CALM 0 0 0 0 1014.8 1014.8 0.0
30/04:45am 13.5 14.1 11.9 90 0.9 CALM 0 0 0 0 1014.7 1014.7 0.0
30/04:30am 13.9 14.6 12.3 90 0.9 CALM 0 0 0 0 1014.7 1014.7 0.0
30/04:00am 13.8 14.4 12.0 89 1.0 CALM 0 0 0 0 1015.0 1015.0 0.0
30/03:30am 14.1 14.8 12.1 88 1.1 CALM 0 0 0 0 1015.2 1015.2 0.0
30/03:00am 14.7 15.6 12.9 89 1.0 CALM 0 0 0 0 1015.5 1015.5 0.0
30/02:30am 14.9 15.4 12.8 87 1.2 N 2 6 1 3 1015.7 1015.7 0.0
30/02:00am 15.0 15.8 12.5 85 1.4 CALM 0 0 0 0 1016.0 1016.0 0.0
30/01:30am 15.2 16.0 12.7 85 1.4 CALM 0 0 0 0 1016.2 1016.2 0.0
30/01:00am 16.0 16.9 12.9 82 1.7 CALM 0 0 0 0 1016.4 1016.4 0.0
30/12:30am 15.8 16.6 12.4 80 1.9 CALM 0 0 0 0 1016.8 1016.8 0.0
30/12:00am 17.4 18.3 12.9 75 2.5 CALM 0 0 0 0 1017.0 1017.0 0.0
 
Date/Time
EDT
Tmp

°C
App
Tmp
°C
Dew
Point
°C
Rel
Hum
%
Delta-T

°C
Wind Press
QNH
hPa
Press
MSL
hPa
Rain
since
9 am
mm
Dir
 
Spd
km/h
Gust
km/h
Spd
kts
Gust
kts
29/11:30pm 18.0 17.9 13.3 74 2.7 N 6 7 3 4 1017.0 1017.0 0.0
29/11:00pm 18.3 17.7 13.4 73 2.8 NNE 9 13 5 7 1017.1 1017.1 0.0
29/10:30pm 18.6 17.6 13.5 72 2.9 NNE 11 15 6 8 1017.0 1017.0 0.0
29/10:00pm 18.8 18.2 13.6 72 3.0 NE 9 15 5 8 1017.0 1017.0 0.0
29/09:30pm 19.0 18.1 13.6 71 3.1 NE 11 17 6 9 1017.0 1017.0 0.0
29/09:00pm 19.0 17.9 13.2 69 3.3 NNE 11 17 6 9 1017.0 1017.0 0.0
29/08:30pm 19.3 17.8 13.0 67 3.6 NNE 13 20 7 11 1016.7 1016.7 0.0
29/08:00pm 19.6 17.7 13.1 66 3.7 NE 15 22 8 12 1016.5 1016.5 0.0
29/07:30pm 19.8 17.5 13.0 65 3.9 NE 17 24 9 13 1016.1 1016.1 0.0
29/07:00pm 20.0 17.0 12.7 63 4.1 NE 20 28 11 15 1015.8 1015.8 0.0
29/06:30pm 20.2 17.3 12.9 63 4.1 ENE 20 28 11 15 1015.4 1015.4 0.0
29/06:00pm 21.1 17.7 12.5 58 4.9 E 22 28 12 15 1014.9 1014.9 0.0
29/05:30pm 21.4 17.6 12.5 57 5.0 ENE 24 32 13 17 1014.7 1014.7 0.0
29/05:00pm 21.9 18.3 11.9 53 5.6 ENE 22 32 12 17 1014.5 1014.5 0.0
29/04:30pm 22.3 18.8 12.3 53 5.7 ENE 22 30 12 16 1014.7 1014.7 0.0
29/04:00pm 22.8 18.6 11.2 48 6.5 NE 24 35 13 19 1014.8 1014.8 0.0
29/03:30pm 23.3 19.8 11.0 46 6.8 NE 20 32 11 17 1014.8 1014.8 0.0
29/03:00pm 23.4 19.5 10.8 45 7.0 E 22 32 12 17 1015.1 1015.1 0.0
29/02:30pm 23.1 19.3 11.2 47 6.6 E 22 32 12 17 1015.4 1015.4 0.0
29/02:00pm 23.2 18.8 10.3 44 7.1 E 24 30 13 16 1015.7 1015.7 0.0
29/01:30pm 24.6 20.4 9.7 39 8.2 ESE 22 32 12 17 1016.0 1016.0 0.0
29/11:00am 22.7 20.0 5.6 33 8.6 N 9 17 5 9 1017.4 1017.4 0.0
29/10:30am 21.9 19.3 6.2 36 7.9 ENE 9 17 5 9 1017.5 1017.5 0.0
29/10:00am 21.5 18.8 5.8 36 7.8 S 9 13 5 7 1017.5 1017.5 0.0
29/09:30am 21.5 18.5 6.2 37 7.7 SW 11 17 6 9 1017.4 1017.4 0.0
29/09:00am 20.0 16.1 5.3 38 7.2 SW 15 24 8 13 1017.4 1017.4 0.0
29/08:30am 19.9 17.8 6.6 42 6.7 SE 7 11 4 6 1017.4 1017.4 0.0
29/08:00am 18.5 15.6 6.4 45 6.0 ESE 11 15 6 8 1017.1 1017.1 0.0
29/07:30am 17.2 15.4 7.0 51 5.1 NW 6 9 3 5 1016.6 1016.6 0.0
29/07:00am 14.4 14.1 8.6 68 2.9 CALM 0 0 0 0 1016.3 1016.3 0.0
29/06:30am 14.1 14.0 9.3 73 2.5 CALM 0 0 0 0 1016.0 1016.0 0.0
29/06:00am 13.4 12.5 7.6 68 2.8 NNW 2 6 1 3 1015.7 1015.7 0.0
29/05:30am 12.3 9.9 8.8 79 1.7 W 11 13 6 7 1015.2 1015.2 0.0
29/05:00am 12.8 11.9 6.2 64 3.1 CALM 0 0 0 0 1015.1 1015.1 0.0
29/04:30am 12.9 11.9 5.8 62 3.3 CALM 0 0 0 0 1014.7 1014.7 0.0
29/04:00am 13.7 11.1 6.1 60 3.6 NNW 9 11 5 6 1014.3 1014.3 0.0
29/03:30am 13.1 12.0 5.0 58 3.7 CALM 0 0 0 0 1014.2 1014.2 0.0
29/03:00am 15.0 14.0 5.5 53 4.5 CALM 0 0 0 0 1014.1 1014.1 0.0
29/02:30am 13.8 12.7 4.9 55 4.1 CALM 0 0 0 0 1014.0 1014.0 0.0
29/02:00am 14.9 13.6 4.3 49 4.9 CALM 0 0 0 0 1013.7 1013.7 0.0
29/01:30am 17.3 16.0 4.3 42 6.1 CALM 0 0 0 0 1013.6 1013.6 0.0
29/01:00am 17.9 16.5 3.4 38 6.7 CALM 0 0 0 0 1013.8 1013.8 0.0
29/12:30am 17.7 14.9 3.2 38 6.7 SW 7 9 4 5 1013.9 1013.9 0.0
29/12:00am 19.0 15.7 2.4 33 7.6 SE 9 13 5 7 1013.9 1013.9 0.0
 
Date/Time
EDT
Tmp

°C
App
Tmp
°C
Dew
Point
°C
Rel
Hum
%
Delta-T

°C
Wind Press
QNH
hPa
Press
MSL
hPa
Rain
since
9 am
mm
Dir
 
Spd
km/h
Gust
km/h
Spd
kts
Gust
kts
28/11:30pm 20.7 15.8 2.0 29 8.6 WSW 17 20 9 11 1013.5 1013.5 0.0
28/11:00pm 21.3 15.8 1.6 27 9.1 WSW 20 30 11 16 1013.2 1013.2 0.0
28/10:30pm 20.9 15.7 2.2 29 8.7 WSW 19 26 10 14 1013.0 1013.0 0.0
28/10:00pm 21.1 16.5 1.4 27 9.0 W 15 22 8 12 1012.7 1012.7 0.0
28/09:30pm 21.3 16.3 1.6 27 9.1 WSW 17 22 9 12 1012.6 1012.6 0.0
28/09:00pm 22.0 17.8 1.6 26 9.5 W 13 19 7 10 1012.2 1012.2 0.0
28/08:30pm 21.7 18.6 1.4 26 9.3 WNW 7 9 4 5 1011.6 1011.6 0.0
28/08:00pm 22.5 18.2 0.9 24 9.9 W 13 19 7 10 1011.1 1011.1 0.0
28/07:30pm 23.3 17.8 0.4 22 10.5 W 19 32 10 17 1010.2 1010.2 0.0
28/07:00pm 24.7 18.5 -0.4 19 11.4 W 22 30 12 16 1009.6 1009.6 0.0
28/06:30pm 25.5 17.6 -1.3 17 12.1 W 30 39 16 21 1009.1 1009.1 0.0
28/06:00pm 26.5 18.6 -1.3 16 12.7 W 30 46 16 25 1008.7 1008.7 0.0
28/05:53pm 26.7 19.2 -1.2 16 12.7 W 28 46 15 25 1008.6 1008.6 0.0
28/05:30pm 27.0 19.4 -1.8 15 13.0 W 28 43 15 23 1008.4 1008.4 0.0
28/05:00pm 27.6 20.4 -2.3 14 13.5 WSW 26 39 14 21 1008.1 1008.1 0.0
28/04:30pm 27.9 20.4 -1.1 15 13.4 W 28 39 15 21 1008.2 1008.2 0.0
28/04:00pm 28.0 20.8 -2.0 14 13.6 WSW 26 41 14 22 1008.2 1008.2 0.0
28/03:30pm 27.8 20.3 -1.2 15 13.3 W 28 46 15 25 1008.4 1008.4 0.0
28/03:29pm 27.8 20.3 -1.2 15 13.3 WSW 28 46 15 25 1008.4 1008.4 0.0
28/03:00pm 28.0 20.4 -2.0 14 13.6 W 28 39 15 21 1008.5 1008.5 0.0
28/02:30pm 27.4 21.0 -1.5 15 13.2 WSW 22 30 12 16 1009.0 1009.0 0.0
28/02:00pm 26.7 19.4 -3.0 14 13.1 W 26 37 14 20 1009.3 1009.3 0.0
28/01:30pm 24.9 19.6 -0.3 19 11.5 W 17 26 9 14 1009.5 1009.5 0.0
28/01:00pm 23.9 19.2 0.9 22 10.7 WNW 15 24 8 13 1009.8 1009.8 0.0
28/12:30pm 23.4 18.4 1.1 23 10.3 W 17 22 9 12 1010.3 1010.3 0.0
28/12:00pm 23.3 18.5 0.4 22 10.5 WNW 15 22 8 12 1010.7 1010.7 0.0
28/11:30am 23.2 17.2 0.9 23 10.3 WSW 22 30 12 16 1011.2 1011.2 0.0
28/11:00am 23.0 17.3 0.8 23 10.2 W 20 26 11 14 1011.4 1011.4 0.0

Latest Capital City Observations: Canberra | Sydney | Melbourne | Brisbane | Adelaide | Perth | Hobart | Darwin

Other Formats:

Comma delimited format used in spreadsheet applications
http://www.bom.gov.au/fwo/IDN60901/IDN60901.94765.axf

JavaScript Object Notation format (JSON) in row-major order
http://www.bom.gov.au/fwo/IDN60901/IDN60901.94765.json